sensor_id;sensor_type;location;lat;lon;timestamp;temperature;humidity
41437;DHT22;27178;49.460;10.850;2022-09-17T00:01:38;14.80;70.20
41437;DHT22;27178;49.460;10.850;2022-09-17T00:04:09;14.80;70.30
41437;DHT22;27178;49.460;10.850;2022-09-17T00:06:38;14.80;70.30
41437;DHT22;27178;49.460;10.850;2022-09-17T00:09:06;14.80;70.40
41437;DHT22;27178;49.460;10.850;2022-09-17T00:11:37;14.80;70.50
41437;DHT22;27178;49.460;10.850;2022-09-17T00:14:06;14.80;70.60
41437;DHT22;27178;49.460;10.850;2022-09-17T00:16:37;14.80;70.60
41437;DHT22;27178;49.460;10.850;2022-09-17T00:19:12;14.80;70.70
41437;DHT22;27178;49.460;10.850;2022-09-17T00:21:41;14.80;70.60
41437;DHT22;27178;49.460;10.850;2022-09-17T00:24:11;14.80;70.70
41437;DHT22;27178;49.460;10.850;2022-09-17T00:26:39;14.80;70.80
41437;DHT22;27178;49.460;10.850;2022-09-17T00:29:07;14.80;70.80
41437;DHT22;27178;49.460;10.850;2022-09-17T00:31:36;14.80;70.80
41437;DHT22;27178;49.460;10.850;2022-09-17T00:34:05;14.80;70.90
41437;DHT22;27178;49.460;10.850;2022-09-17T00:36:35;14.80;70.90
41437;DHT22;27178;49.460;10.850;2022-09-17T00:39:05;14.80;70.80
41437;DHT22;27178;49.460;10.850;2022-09-17T00:41:34;14.80;70.90
41437;DHT22;27178;49.460;10.850;2022-09-17T00:47:06;14.80;71.00
41437;DHT22;27178;49.460;10.850;2022-09-17T00:49:35;14.80;71.20
41437;DHT22;27178;49.460;10.850;2022-09-17T00:52:10;14.80;71.10
41437;DHT22;27178;49.460;10.850;2022-09-17T00:54:43;14.80;71.30
41437;DHT22;27178;49.460;10.850;2022-09-17T00:57:13;14.80;71.10
41437;DHT22;27178;49.460;10.850;2022-09-17T00:59:41;14.80;71.20
41437;DHT22;27178;49.460;10.850;2022-09-17T01:02:10;14.80;71.20
41437;DHT22;27178;49.460;10.850;2022-09-17T01:04:38;14.80;71.30
41437;DHT22;27178;49.460;10.850;2022-09-17T01:07:18;14.80;71.20
41437;DHT22;27178;49.460;10.850;2022-09-17T01:09:56;14.80;71.30
41437;DHT22;27178;49.460;10.850;2022-09-17T01:12:36;14.80;71.30
41437;DHT22;27178;49.460;10.850;2022-09-17T01:15:18;14.80;71.20
41437;DHT22;27178;49.460;10.850;2022-09-17T01:17:56;14.80;71.10
41437;DHT22;27178;49.460;10.850;2022-09-17T01:29:58;14.70;70.80
41437;DHT22;27178;49.460;10.850;2022-09-17T01:32:37;14.70;70.80
41437;DHT22;27178;49.460;10.850;2022-09-17T01:35:14;14.70;70.80
41437;DHT22;27178;49.460;10.850;2022-09-17T01:37:55;14.60;71.00
41437;DHT22;27178;49.460;10.850;2022-09-17T01:40:28;14.60;71.00
41437;DHT22;27178;49.460;10.850;2022-09-17T01:43:02;14.60;71.30
41437;DHT22;27178;49.460;10.850;2022-09-17T01:45:34;14.60;71.10
41437;DHT22;27178;49.460;10.850;2022-09-17T01:48:10;14.50;71.30
41437;DHT22;27178;49.460;10.850;2022-09-17T01:50:44;14.50;71.30
41437;DHT22;27178;49.460;10.850;2022-09-17T01:53:15;14.50;71.30
41437;DHT22;27178;49.460;10.850;2022-09-17T01:55:45;14.40;71.40
41437;DHT22;27178;49.460;10.850;2022-09-17T01:58:19;14.40;71.50
41437;DHT22;27178;49.460;10.850;2022-09-17T02:00:53;14.40;71.60
41437;DHT22;27178;49.460;10.850;2022-09-17T02:03:28;14.40;71.70
41437;DHT22;27178;49.460;10.850;2022-09-17T02:05:59;14.40;71.70
41437;DHT22;27178;49.460;10.850;2022-09-17T02:08:33;14.40;71.80
41437;DHT22;27178;49.460;10.850;2022-09-17T02:11:07;14.40;71.90
41437;DHT22;27178;49.460;10.850;2022-09-17T02:13:40;14.40;71.90
41437;DHT22;27178;49.460;10.850;2022-09-17T02:16:13;14.40;71.90
41437;DHT22;27178;49.460;10.850;2022-09-17T02:18:49;14.30;71.90
41437;DHT22;27178;49.460;10.850;2022-09-17T02:21:28;14.30;72.10
41437;DHT22;27178;49.460;10.850;2022-09-17T02:24:05;14.30;72.20
41437;DHT22;27178;49.460;10.850;2022-09-17T02:26:37;14.40;72.30
41437;DHT22;27178;49.460;10.850;2022-09-17T02:29:08;14.40;72.50
41437;DHT22;27178;49.460;10.850;2022-09-17T02:31:40;14.40;72.30
41437;DHT22;27178;49.460;10.850;2022-09-17T02:34:10;14.40;72.20
41437;DHT22;27178;49.460;10.850;2022-09-17T02:36:38;14.40;72.40
41437;DHT22;27178;49.460;10.850;2022-09-17T02:39:08;14.40;72.60
41437;DHT22;27178;49.460;10.850;2022-09-17T02:41:44;14.40;72.50
41437;DHT22;27178;49.460;10.850;2022-09-17T02:44:23;14.40;72.40
41437;DHT22;27178;49.460;10.850;2022-09-17T02:50:01;14.40;72.30
41437;DHT22;27178;49.460;10.850;2022-09-17T02:52:44;14.40;72.30
41437;DHT22;27178;49.460;10.850;2022-09-17T02:55:17;14.40;72.30
41437;DHT22;27178;49.460;10.850;2022-09-17T02:57:53;14.40;72.20
41437;DHT22;27178;49.460;10.850;2022-09-17T03:00:25;14.40;72.30
41437;DHT22;27178;49.460;10.850;2022-09-17T03:02:57;14.40;72.30
41437;DHT22;27178;49.460;10.850;2022-09-17T03:05:29;14.40;72.30
41437;DHT22;27178;49.460;10.850;2022-09-17T03:07:58;14.40;72.10
41437;DHT22;27178;49.460;10.850;2022-09-17T03:10:26;14.40;71.90
41437;DHT22;27178;49.460;10.850;2022-09-17T03:12:56;14.40;71.80
41437;DHT22;27178;49.460;10.850;2022-09-17T03:15:24;14.40;71.90
41437;DHT22;27178;49.460;10.850;2022-09-17T03:17:53;14.40;71.70
41437;DHT22;27178;49.460;10.850;2022-09-17T03:20:21;14.40;71.80
41437;DHT22;27178;49.460;10.850;2022-09-17T03:22:51;14.40;71.90
41437;DHT22;27178;49.460;10.850;2022-09-17T03:25:20;14.40;71.70
41437;DHT22;27178;49.460;10.850;2022-09-17T03:27:48;14.40;71.90
41437;DHT22;27178;49.460;10.850;2022-09-17T03:30:17;14.40;71.90
41437;DHT22;27178;49.460;10.850;2022-09-17T03:32:45;14.40;71.80
41437;DHT22;27178;49.460;10.850;2022-09-17T03:35:13;14.40;71.80
41437;DHT22;27178;49.460;10.850;2022-09-17T03:37:42;14.40;71.80
41437;DHT22;27178;49.460;10.850;2022-09-17T03:40:12;14.40;71.60
41437;DHT22;27178;49.460;10.850;2022-09-17T03:42:40;14.40;71.50
41437;DHT22;27178;49.460;10.850;2022-09-17T03:45:09;14.40;71.70
41437;DHT22;27178;49.460;10.850;2022-09-17T03:47:38;14.30;71.60
41437;DHT22;27178;49.460;10.850;2022-09-17T03:50:06;14.30;71.50
41437;DHT22;27178;49.460;10.850;2022-09-17T03:52:35;14.30;71.50
41437;DHT22;27178;49.460;10.850;2022-09-17T03:55:04;14.30;71.40
41437;DHT22;27178;49.460;10.850;2022-09-17T03:57:34;14.30;71.50
41437;DHT22;27178;49.460;10.850;2022-09-17T04:00:03;14.30;71.70
41437;DHT22;27178;49.460;10.850;2022-09-17T04:02:32;14.30;71.80
41437;DHT22;27178;49.460;10.850;2022-09-17T04:05:00;14.20;71.60
41437;DHT22;27178;49.460;10.850;2022-09-17T04:07:28;14.20;71.50
41437;DHT22;27178;49.460;10.850;2022-09-17T04:09:57;14.20;71.60
41437;DHT22;27178;49.460;10.850;2022-09-17T04:12:25;14.20;71.80
41437;DHT22;27178;49.460;10.850;2022-09-17T04:14:55;14.10;71.80
41437;DHT22;27178;49.460;10.850;2022-09-17T04:17:23;14.10;72.00
41437;DHT22;27178;49.460;10.850;2022-09-17T04:19:52;14.10;72.10
41437;DHT22;27178;49.460;10.850;2022-09-17T04:22:21;14.10;72.30
41437;DHT22;27178;49.460;10.850;2022-09-17T04:24:49;14.10;72.30
41437;DHT22;27178;49.460;10.850;2022-09-17T04:27:17;14.10;72.40
41437;DHT22;27178;49.460;10.850;2022-09-17T04:29:46;14.10;72.30
41437;DHT22;27178;49.460;10.850;2022-09-17T04:32:15;14.10;72.50
41437;DHT22;27178;49.460;10.850;2022-09-17T04:34:44;14.10;72.60
41437;DHT22;27178;49.460;10.850;2022-09-17T04:37:12;14.10;72.60
41437;DHT22;27178;49.460;10.850;2022-09-17T04:39:40;14.10;72.60
41437;DHT22;27178;49.460;10.850;2022-09-17T04:42:08;14.10;72.60
41437;DHT22;27178;49.460;10.850;2022-09-17T04:44:37;14.10;72.60
41437;DHT22;27178;49.460;10.850;2022-09-17T04:47:05;14.10;72.60
41437;DHT22;27178;49.460;10.850;2022-09-17T04:49:35;14.10;72.60
41437;DHT22;27178;49.460;10.850;2022-09-17T04:52:03;14.10;72.60
41437;DHT22;27178;49.460;10.850;2022-09-17T04:54:31;14.10;72.60
41437;DHT22;27178;49.460;10.850;2022-09-17T04:57:00;14.10;72.60
41437;DHT22;27178;49.460;10.850;2022-09-17T04:59:28;14.10;72.60
41437;DHT22;27178;49.460;10.850;2022-09-17T05:01:57;14.20;72.60
41437;DHT22;27178;49.460;10.850;2022-09-17T05:04:25;14.10;72.60
41437;DHT22;27178;49.460;10.850;2022-09-17T05:06:55;14.20;72.60
41437;DHT22;27178;49.460;10.850;2022-09-17T05:09:23;14.20;72.80
41437;DHT22;27178;49.460;10.850;2022-09-17T05:11:51;14.10;72.70
41437;DHT22;27178;49.460;10.850;2022-09-17T05:14:19;14.10;72.80
41437;DHT22;27178;49.460;10.850;2022-09-17T05:16:48;14.20;72.90
41437;DHT22;27178;49.460;10.850;2022-09-17T05:19:16;14.10;72.90
41437;DHT22;27178;49.460;10.850;2022-09-17T05:21:44;14.20;73.10
41437;DHT22;27178;49.460;10.850;2022-09-17T05:24:13;14.20;73.20
41437;DHT22;27178;49.460;10.850;2022-09-17T05:26:41;14.20;73.20
41437;DHT22;27178;49.460;10.850;2022-09-17T05:29:10;14.20;73.40
41437;DHT22;27178;49.460;10.850;2022-09-17T05:31:38;14.20;73.60
41437;DHT22;27178;49.460;10.850;2022-09-17T05:34:07;14.20;73.60
41437;DHT22;27178;49.460;10.850;2022-09-17T05:36:36;14.20;73.70
41437;DHT22;27178;49.460;10.850;2022-09-17T05:39:04;14.20;73.90
41437;DHT22;27178;49.460;10.850;2022-09-17T05:41:34;14.20;74.00
41437;DHT22;27178;49.460;10.850;2022-09-17T05:44:03;14.20;74.10
41437;DHT22;27178;49.460;10.850;2022-09-17T05:46:31;14.20;74.20
41437;DHT22;27178;49.460;10.850;2022-09-17T05:48:59;14.20;74.30
41437;DHT22;27178;49.460;10.850;2022-09-17T05:51:28;14.10;74.40
41437;DHT22;27178;49.460;10.850;2022-09-17T05:53:56;14.10;74.60
41437;DHT22;27178;49.460;10.850;2022-09-17T05:56:24;14.10;74.70
41437;DHT22;27178;49.460;10.850;2022-09-17T05:58:55;14.10;74.70
41437;DHT22;27178;49.460;10.850;2022-09-17T06:01:24;14.10;74.90
41437;DHT22;27178;49.460;10.850;2022-09-17T06:03:52;14.10;74.90
41437;DHT22;27178;49.460;10.850;2022-09-17T06:06:21;14.10;74.90
41437;DHT22;27178;49.460;10.850;2022-09-17T06:08:49;14.10;74.90
41437;DHT22;27178;49.460;10.850;2022-09-17T06:11:17;14.00;74.70
41437;DHT22;27178;49.460;10.850;2022-09-17T06:13:46;14.00;74.80
41437;DHT22;27178;49.460;10.850;2022-09-17T06:16:17;14.00;75.70
41437;DHT22;27178;49.460;10.850;2022-09-17T06:18:45;13.90;75.00
41437;DHT22;27178;49.460;10.850;2022-09-17T06:21:14;13.90;75.20
41437;DHT22;27178;49.460;10.850;2022-09-17T06:23:42;13.90;75.30
41437;DHT22;27178;49.460;10.850;2022-09-17T06:26:11;13.90;75.40
41437;DHT22;27178;49.460;10.850;2022-09-17T06:28:40;13.90;75.40
41437;DHT22;27178;49.460;10.850;2022-09-17T06:31:10;13.90;75.50
41437;DHT22;27178;49.460;10.850;2022-09-17T06:33:40;13.80;75.60
41437;DHT22;27178;49.460;10.850;2022-09-17T06:36:09;13.80;75.70
41437;DHT22;27178;49.460;10.850;2022-09-17T06:38:40;13.80;75.80
41437;DHT22;27178;49.460;10.850;2022-09-17T06:41:09;13.80;76.00
41437;DHT22;27178;49.460;10.850;2022-09-17T06:43:38;13.80;76.00
41437;DHT22;27178;49.460;10.850;2022-09-17T06:46:06;13.80;76.50
41437;DHT22;27178;49.460;10.850;2022-09-17T06:48:36;13.80;76.50
41437;DHT22;27178;49.460;10.850;2022-09-17T06:51:07;13.80;76.90
41437;DHT22;27178;49.460;10.850;2022-09-17T06:53:36;13.80;77.30
41437;DHT22;27178;49.460;10.850;2022-09-17T06:56:06;13.80;77.30
41437;DHT22;27178;49.460;10.850;2022-09-17T06:58:35;13.80;77.80
41437;DHT22;27178;49.460;10.850;2022-09-17T07:01:04;13.70;78.90
41437;DHT22;27178;49.460;10.850;2022-09-17T07:03:33;13.70;79.50
41437;DHT22;27178;49.460;10.850;2022-09-17T07:06:01;13.70;80.00
41437;DHT22;27178;49.460;10.850;2022-09-17T07:08:32;13.70;80.40
41437;DHT22;27178;49.460;10.850;2022-09-17T07:11:01;13.60;81.10
41437;DHT22;27178;49.460;10.850;2022-09-17T07:13:29;13.60;81.70
41437;DHT22;27178;49.460;10.850;2022-09-17T07:16:00;13.60;82.10
41437;DHT22;27178;49.460;10.850;2022-09-17T07:18:29;13.50;82.60
41437;DHT22;27178;49.460;10.850;2022-09-17T07:20:59;13.50;82.80
41437;DHT22;27178;49.460;10.850;2022-09-17T07:23:28;13.40;83.10
41437;DHT22;27178;49.460;10.850;2022-09-17T07:26:00;13.40;83.20
41437;DHT22;27178;49.460;10.850;2022-09-17T07:28:29;13.40;83.40
41437;DHT22;27178;49.460;10.850;2022-09-17T07:30:57;13.40;83.50
41437;DHT22;27178;49.460;10.850;2022-09-17T07:33:26;13.30;83.20
41437;DHT22;27178;49.460;10.850;2022-09-17T07:35:56;13.30;83.00
41437;DHT22;27178;49.460;10.850;2022-09-17T07:38:28;13.30;83.00
41437;DHT22;27178;49.460;10.850;2022-09-17T07:40:59;13.30;83.00
41437;DHT22;27178;49.460;10.850;2022-09-17T07:43:29;13.30;82.80
41437;DHT22;27178;49.460;10.850;2022-09-17T07:45:59;13.30;82.80
41437;DHT22;27178;49.460;10.850;2022-09-17T07:48:29;13.30;82.80
41437;DHT22;27178;49.460;10.850;2022-09-17T07:50:57;13.30;82.60
41437;DHT22;27178;49.460;10.850;2022-09-17T07:53:26;13.40;82.60
41437;DHT22;27178;49.460;10.850;2022-09-17T07:55:56;13.40;82.70
41437;DHT22;27178;49.460;10.850;2022-09-17T07:58:30;13.40;82.60
41437;DHT22;27178;49.460;10.850;2022-09-17T08:00:59;13.40;82.70
41437;DHT22;27178;49.460;10.850;2022-09-17T08:03:29;13.40;82.70
41437;DHT22;27178;49.460;10.850;2022-09-17T08:06:01;13.50;82.70
41437;DHT22;27178;49.460;10.850;2022-09-17T08:08:31;13.50;83.00
41437;DHT22;27178;49.460;10.850;2022-09-17T08:11:00;13.50;82.70
41437;DHT22;27178;49.460;10.850;2022-09-17T08:13:30;13.50;82.60
41437;DHT22;27178;49.460;10.850;2022-09-17T08:16:00;13.60;82.50
41437;DHT22;27178;49.460;10.850;2022-09-17T08:18:28;13.60;82.40
41437;DHT22;27178;49.460;10.850;2022-09-17T08:20:57;13.60;82.30
41437;DHT22;27178;49.460;10.850;2022-09-17T08:23:25;13.60;82.20
41437;DHT22;27178;49.460;10.850;2022-09-17T08:25:54;13.60;82.20
41437;DHT22;27178;49.460;10.850;2022-09-17T08:28:24;13.60;82.10
41437;DHT22;27178;49.460;10.850;2022-09-17T08:30:59;13.60;81.90
41437;DHT22;27178;49.460;10.850;2022-09-17T08:33:30;13.60;81.90
41437;DHT22;27178;49.460;10.850;2022-09-17T08:35:58;13.70;81.80
41437;DHT22;27178;49.460;10.850;2022-09-17T08:38:28;13.70;81.70
41437;DHT22;27178;49.460;10.850;2022-09-17T08:41:11;13.70;81.50
41437;DHT22;27178;49.460;10.850;2022-09-17T08:43:48;13.70;81.40
41437;DHT22;27178;49.460;10.850;2022-09-17T08:46:19;13.70;81.50
41437;DHT22;27178;49.460;10.850;2022-09-17T08:48:51;13.80;81.50
41437;DHT22;27178;49.460;10.850;2022-09-17T08:51:28;13.80;81.50
41437;DHT22;27178;49.460;10.850;2022-09-17T08:54:03;13.80;81.30
41437;DHT22;27178;49.460;10.850;2022-09-17T08:56:37;13.90;81.50
41437;DHT22;27178;49.460;10.850;2022-09-17T08:59:16;13.90;81.40
41437;DHT22;27178;49.460;10.850;2022-09-17T09:01:55;13.90;81.30
41437;DHT22;27178;49.460;10.850;2022-09-17T09:04:53;14.00;81.30
41437;DHT22;27178;49.460;10.850;2022-09-17T09:07:26;14.10;81.30
41437;DHT22;27178;49.460;10.850;2022-09-17T09:10:05;14.10;81.20
41437;DHT22;27178;49.460;10.850;2022-09-17T09:12:36;14.20;80.80
41437;DHT22;27178;49.460;10.850;2022-09-17T09:15:22;14.30;80.70
41437;DHT22;27178;49.460;10.850;2022-09-17T09:17:56;14.30;80.40
41437;DHT22;27178;49.460;10.850;2022-09-17T09:20:30;14.30;80.40
41437;DHT22;27178;49.460;10.850;2022-09-17T09:23:09;14.40;80.30
41437;DHT22;27178;49.460;10.850;2022-09-17T09:25:50;14.40;80.10
41437;DHT22;27178;49.460;10.850;2022-09-17T09:28:32;14.50;80.00
41437;DHT22;27178;49.460;10.850;2022-09-17T09:31:14;14.50;79.80
41437;DHT22;27178;49.460;10.850;2022-09-17T09:33:45;14.50;79.60
41437;DHT22;27178;49.460;10.850;2022-09-17T09:36:16;14.50;79.50
41437;DHT22;27178;49.460;10.850;2022-09-17T09:38:51;14.50;79.50
41437;DHT22;27178;49.460;10.850;2022-09-17T09:41:26;14.60;79.60
41437;DHT22;27178;49.460;10.850;2022-09-17T09:44:00;14.60;79.60
41437;DHT22;27178;49.460;10.850;2022-09-17T09:46:55;14.60;79.40
41437;DHT22;27178;49.460;10.850;2022-09-17T09:49:34;14.60;79.20
41437;DHT22;27178;49.460;10.850;2022-09-17T09:52:18;14.60;79.30
41437;DHT22;27178;49.460;10.850;2022-09-17T09:54:58;14.70;79.30
41437;DHT22;27178;49.460;10.850;2022-09-17T09:57:36;14.70;79.20
41437;DHT22;27178;49.460;10.850;2022-09-17T10:00:27;14.70;79.10
41437;DHT22;27178;49.460;10.850;2022-09-17T10:03:00;14.80;78.90
41437;DHT22;27178;49.460;10.850;2022-09-17T10:05:30;14.80;79.20
41437;DHT22;27178;49.460;10.850;2022-09-17T10:07:59;14.90;79.20
41437;DHT22;27178;49.460;10.850;2022-09-17T10:10:41;14.90;79.00
41437;DHT22;27178;49.460;10.850;2022-09-17T10:13:20;15.00;78.80
41437;DHT22;27178;49.460;10.850;2022-09-17T10:15:49;15.00;78.50
41437;DHT22;27178;49.460;10.850;2022-09-17T10:18:18;15.10;78.30
41437;DHT22;27178;49.460;10.850;2022-09-17T10:20:52;15.10;78.30
41437;DHT22;27178;49.460;10.850;2022-09-17T10:23:20;15.10;78.50
41437;DHT22;27178;49.460;10.850;2022-09-17T10:25:49;15.10;79.40
41437;DHT22;27178;49.460;10.850;2022-09-17T10:28:34;15.20;78.40
41437;DHT22;27178;49.460;10.850;2022-09-17T10:31:07;15.20;77.80
41437;DHT22;27178;49.460;10.850;2022-09-17T10:33:50;15.20;77.70
41437;DHT22;27178;49.460;10.850;2022-09-17T10:39:30;15.20;77.50
41437;DHT22;27178;49.460;10.850;2022-09-17T10:42:01;15.30;78.10
41437;DHT22;27178;49.460;10.850;2022-09-17T10:44:31;15.30;78.50
41437;DHT22;27178;49.460;10.850;2022-09-17T10:47:05;15.30;78.40
41437;DHT22;27178;49.460;10.850;2022-09-17T10:49:41;15.40;78.50
41437;DHT22;27178;49.460;10.850;2022-09-17T10:52:17;15.50;78.70
41437;DHT22;27178;49.460;10.850;2022-09-17T10:55:01;15.60;78.50
41437;DHT22;27178;49.460;10.850;2022-09-17T10:57:41;15.70;78.10
41437;DHT22;27178;49.460;10.850;2022-09-17T11:00:15;15.80;78.20
41437;DHT22;27178;49.460;10.850;2022-09-17T11:03:14;15.90;78.10
41437;DHT22;27178;49.460;10.850;2022-09-17T11:06:03;16.00;77.80
41437;DHT22;27178;49.460;10.850;2022-09-17T11:08:45;16.10;77.70
41437;DHT22;27178;49.460;10.850;2022-09-17T11:11:41;16.20;77.40
41437;DHT22;27178;49.460;10.850;2022-09-17T11:14:20;16.30;76.40
41437;DHT22;27178;49.460;10.850;2022-09-17T11:16:58;16.50;76.30
41437;DHT22;27178;49.460;10.850;2022-09-17T11:19:37;16.60;75.50
41437;DHT22;27178;49.460;10.850;2022-09-17T11:22:18;16.70;74.80
41437;DHT22;27178;49.460;10.850;2022-09-17T11:25:22;16.70;74.20
41437;DHT22;27178;49.460;10.850;2022-09-17T11:28:07;16.70;73.10
41437;DHT22;27178;49.460;10.850;2022-09-17T11:30:51;16.70;73.30
41437;DHT22;27178;49.460;10.850;2022-09-17T11:33:43;16.60;73.40
41437;DHT22;27178;49.460;10.850;2022-09-17T11:36:21;16.60;74.40
41437;DHT22;27178;49.460;10.850;2022-09-17T11:38:52;16.50;74.70
41437;DHT22;27178;49.460;10.850;2022-09-17T11:41:24;16.50;75.70
41437;DHT22;27178;49.460;10.850;2022-09-17T11:44:07;16.50;76.60
41437;DHT22;27178;49.460;10.850;2022-09-17T11:46:39;16.60;75.50
41437;DHT22;27178;49.460;10.850;2022-09-17T11:49:22;16.70;76.40
41437;DHT22;27178;49.460;10.850;2022-09-17T11:51:56;16.70;76.10
41437;DHT22;27178;49.460;10.850;2022-09-17T11:54:29;16.80;75.50
41437;DHT22;27178;49.460;10.850;2022-09-17T11:57:05;16.80;75.40
41437;DHT22;27178;49.460;10.850;2022-09-17T11:59:41;16.90;75.50
41437;DHT22;27178;49.460;10.850;2022-09-17T12:02:18;17.00;75.80
41437;DHT22;27178;49.460;10.850;2022-09-17T12:04:54;17.10;75.60
41437;DHT22;27178;49.460;10.850;2022-09-17T12:07:36;17.30;74.30
41437;DHT22;27178;49.460;10.850;2022-09-17T12:10:19;17.40;73.60
41437;DHT22;27178;49.460;10.850;2022-09-17T12:12:56;17.50;73.80
41437;DHT22;27178;49.460;10.850;2022-09-17T12:15:27;17.60;73.50
41437;DHT22;27178;49.460;10.850;2022-09-17T12:18:06;17.80;73.50
41437;DHT22;27178;49.460;10.850;2022-09-17T12:21:01;18.00;72.60
41437;DHT22;27178;49.460;10.850;2022-09-17T12:23:36;18.20;72.30
41437;DHT22;27178;49.460;10.850;2022-09-17T12:26:13;18.30;71.80
41437;DHT22;27178;49.460;10.850;2022-09-17T12:28:50;18.50;71.70
41437;DHT22;27178;49.460;10.850;2022-09-17T12:31:29;18.60;71.00
41437;DHT22;27178;49.460;10.850;2022-09-17T12:34:04;18.80;70.20
41437;DHT22;27178;49.460;10.850;2022-09-17T12:36:46;18.80;69.40
41437;DHT22;27178;49.460;10.850;2022-09-17T12:39:45;18.90;68.00
41437;DHT22;27178;49.460;10.850;2022-09-17T12:42:33;18.80;68.00
41437;DHT22;27178;49.460;10.850;2022-09-17T12:45:18;18.70;67.60
41437;DHT22;27178;49.460;10.850;2022-09-17T12:48:09;18.60;66.70
41437;DHT22;27178;49.460;10.850;2022-09-17T12:50:49;18.50;67.00
41437;DHT22;27178;49.460;10.850;2022-09-17T12:53:27;18.40;67.10
41437;DHT22;27178;49.460;10.850;2022-09-17T12:56:04;18.40;67.40
41437;DHT22;27178;49.460;10.850;2022-09-17T12:58:55;18.30;66.90
41437;DHT22;27178;49.460;10.850;2022-09-17T13:01:29;18.20;67.10
41437;DHT22;27178;49.460;10.850;2022-09-17T13:04:14;18.10;67.80
41437;DHT22;27178;49.460;10.850;2022-09-17T13:07:13;18.20;67.30
41437;DHT22;27178;49.460;10.850;2022-09-17T13:10:24;18.10;67.60
41437;DHT22;27178;49.460;10.850;2022-09-17T13:13:04;18.10;67.30
41437;DHT22;27178;49.460;10.850;2022-09-17T13:15:44;18.10;67.50
41437;DHT22;27178;49.460;10.850;2022-09-17T13:18:16;18.10;67.70
41437;DHT22;27178;49.460;10.850;2022-09-17T13:21:03;18.10;67.80
41437;DHT22;27178;49.460;10.850;2022-09-17T13:23:37;18.00;67.50
41437;DHT22;27178;49.460;10.850;2022-09-17T13:26:07;18.00;68.10
41437;DHT22;27178;49.460;10.850;2022-09-17T13:28:38;18.00;68.40
41437;DHT22;27178;49.460;10.850;2022-09-17T13:31:17;17.90;68.40
41437;DHT22;27178;49.460;10.850;2022-09-17T13:33:55;17.90;66.90
41437;DHT22;27178;49.460;10.850;2022-09-17T13:36:52;17.80;66.80
41437;DHT22;27178;49.460;10.850;2022-09-17T13:39:42;17.70;66.70
41437;DHT22;27178;49.460;10.850;2022-09-17T13:42:18;17.60;67.30
41437;DHT22;27178;49.460;10.850;2022-09-17T13:44:50;17.60;67.10
41437;DHT22;27178;49.460;10.850;2022-09-17T13:47:23;17.50;67.20
41437;DHT22;27178;49.460;10.850;2022-09-17T13:49:56;17.50;67.30
41437;DHT22;27178;49.460;10.850;2022-09-17T13:52:38;17.40;67.30
41437;DHT22;27178;49.460;10.850;2022-09-17T13:55:18;17.30;66.70
41437;DHT22;27178;49.460;10.850;2022-09-17T13:57:57;17.20;67.40
41437;DHT22;27178;49.460;10.850;2022-09-17T14:00:52;17.20;68.20
41437;DHT22;27178;49.460;10.850;2022-09-17T14:03:45;17.20;69.90
41437;DHT22;27178;49.460;10.850;2022-09-17T14:06:49;17.30;70.20
41437;DHT22;27178;49.460;10.850;2022-09-17T14:12:56;17.80;70.30
41437;DHT22;27178;49.460;10.850;2022-09-17T14:15:54;18.30;70.40
41437;DHT22;27178;49.460;10.850;2022-09-17T14:18:42;18.60;68.70
41437;DHT22;27178;49.460;10.850;2022-09-17T14:21:21;18.90;67.50
41437;DHT22;27178;49.460;10.850;2022-09-17T14:23:55;19.00;67.00
41437;DHT22;27178;49.460;10.850;2022-09-17T14:29:47;19.10;65.70
41437;DHT22;27178;49.460;10.850;2022-09-17T14:32:23;19.00;65.70
41437;DHT22;27178;49.460;10.850;2022-09-17T14:34:59;19.00;66.20
41437;DHT22;27178;49.460;10.850;2022-09-17T14:37:28;19.10;67.00
41437;DHT22;27178;49.460;10.850;2022-09-17T14:39:58;19.20;67.90
41437;DHT22;27178;49.460;10.850;2022-09-17T14:42:33;19.40;67.70
41437;DHT22;27178;49.460;10.850;2022-09-17T14:45:06;19.60;66.80
41437;DHT22;27178;49.460;10.850;2022-09-17T14:47:37;19.80;67.00
41437;DHT22;27178;49.460;10.850;2022-09-17T14:50:22;20.10;67.20
41437;DHT22;27178;49.460;10.850;2022-09-17T14:52:51;20.30;64.70
41437;DHT22;27178;49.460;10.850;2022-09-17T14:55:21;20.40;65.40
41437;DHT22;27178;49.460;10.850;2022-09-17T14:57:54;20.50;64.70
41437;DHT22;27178;49.460;10.850;2022-09-17T15:00:27;20.60;64.60
41437;DHT22;27178;49.460;10.850;2022-09-17T15:02:57;20.70;65.00
41437;DHT22;27178;49.460;10.850;2022-09-17T15:05:28;20.90;65.50
41437;DHT22;27178;49.460;10.850;2022-09-17T15:08:07;21.00;64.60
41437;DHT22;27178;49.460;10.850;2022-09-17T15:10:46;21.10;62.70
41437;DHT22;27178;49.460;10.850;2022-09-17T15:13:17;21.20;61.10
41437;DHT22;27178;49.460;10.850;2022-09-17T15:15:57;21.30;62.30
41437;DHT22;27178;49.460;10.850;2022-09-17T15:18:37;21.30;61.20
41437;DHT22;27178;49.460;10.850;2022-09-17T15:21:20;21.30;60.00
41437;DHT22;27178;49.460;10.850;2022-09-17T15:23:51;21.40;60.10
41437;DHT22;27178;49.460;10.850;2022-09-17T15:26:26;21.60;60.80
41437;DHT22;27178;49.460;10.850;2022-09-17T15:28:56;21.70;59.50
41437;DHT22;27178;49.460;10.850;2022-09-17T15:31:27;21.70;59.60
41437;DHT22;27178;49.460;10.850;2022-09-17T15:33:58;21.80;58.90
41437;DHT22;27178;49.460;10.850;2022-09-17T15:36:28;21.80;58.10
41437;DHT22;27178;49.460;10.850;2022-09-17T15:38:58;21.40;58.40
41437;DHT22;27178;49.460;10.850;2022-09-17T15:41:29;21.70;58.10
41437;DHT22;27178;49.460;10.850;2022-09-17T15:44:15;21.70;58.00
41437;DHT22;27178;49.460;10.850;2022-09-17T15:47:36;21.70;57.70
41437;DHT22;27178;49.460;10.850;2022-09-17T15:50:18;21.60;57.00
41437;DHT22;27178;49.460;10.850;2022-09-17T15:52:47;21.50;57.60
41437;DHT22;27178;49.460;10.850;2022-09-17T15:55:32;21.30;57.10
41437;DHT22;27178;49.460;10.850;2022-09-17T15:58:04;21.10;56.80
41437;DHT22;27178;49.460;10.850;2022-09-17T16:00:33;21.00;57.30
41437;DHT22;27178;49.460;10.850;2022-09-17T16:06:37;20.60;57.60
41437;DHT22;27178;49.460;10.850;2022-09-17T16:09:39;20.50;58.40
41437;DHT22;27178;49.460;10.850;2022-09-17T16:12:10;20.50;58.00
41437;DHT22;27178;49.460;10.850;2022-09-17T16:14:45;20.50;58.50
41437;DHT22;27178;49.460;10.850;2022-09-17T16:17:32;20.60;58.50
41437;DHT22;27178;49.460;10.850;2022-09-17T16:20:08;20.70;57.90
41437;DHT22;27178;49.460;10.850;2022-09-17T16:22:37;20.60;56.90
41437;DHT22;27178;49.460;10.850;2022-09-17T16:25:06;20.60;57.10
41437;DHT22;27178;49.460;10.850;2022-09-17T16:27:42;20.40;57.00